Whiting Field Naval Air Station north Airport Milton US
ICAO: KNSE
IATA: NSE
Category: Medium
Scheduled Services: No

Elevation: 199 ft
TransAlt. 18000 ft.

Airport Communications:
PENSACOLA APP/DEP:127.35
ATIS:29.032
CLNC DEL:25.777
GND:25.115
BASE OPS:23.37
PMSV METRO:31.695
TWR:121.4

KNSE Zoom In..

Runways:

(A) RW 05 length 6002 ft width 200 ft
---- / hdg 49

(B) RW 14 length 6002 ft width 200 ft
ILS 111.75 / hdg 139

(C) RW 23 length 6002 ft width 200 ft
---- / hdg 229

(D) RW 32 length 6002 ft width 200 ft
---- / hdg 319

Location; KNSE
Day. 05 / Time. 18.24 Zulu
* Altimeter: 30.00
* Temperature: 28° c. 82.4°f.
* Wind from: 230° Speed 09 kn.
Dewpoint: 24° c.
Visibility: 9 Statute Miles.
Clouds: Scattered 4000 ft.
Clouds: Scattered 8000 ft.
Clouds: Broken 12000 ft.
Clouds: Broken 25000 ft.
Conditions: Cumulonimbus.

KNSE 051824Z 23009KT 9SM SCT040 SCT080 BKN120 BKN250 28/24 A3000 RMK AO2 RAB1759E24 TSB04E24 OCNL LTGICCG DSNT NW CB DSNT NW T1 SET P0000 T02780239 $

Going to: --> -->


Wind From 230°
Speed 09 kn.

 
 
jpsmedia worldairports.se 2020   terms of use